< Typhoon 200011 2000 Season Typhoon 200013 >
Typhoon 200012 (PRAPIROON)
General InformationTrack Information on Google MapsDetailed Wind InformationList of All Images || NewsDisaster Info.ResourceGoogle EarthGE AnimationAtom FeedGeoJSON
Detalied Best Track (Time Zone = UTC)
Year Month Day Hour Lat. Long. Pressure (hPa) Wind (kt) Class Image Chart
2000 8 24 18 12.4 136.0 1002 0 2 Image Chart
2000 8 25 00 12.6 134.1 1002 0 2 Image Chart
2000 8 25 06 13.0 132.3 1002 0 2 Image Chart
2000 8 25 12 13.2 131.4 1002 0 2 Image Chart
2000 8 25 18 13.5 131.7 1000 0 2 Image Chart
2000 8 26 00 15.4 131.9 998 0 2 Image Chart
2000 8 26 06 16.7 131.7 996 0 2 Image Chart
2000 8 26 12 19.0 131.7 996 0 2 Image Chart
2000 8 26 18 20.4 131.5 992 35 3 Image Chart
2000 8 27 00 21.8 130.3 992 40 3 Image Chart
2000 8 27 06 22.5 128.9 990 40 3 Image Chart
2000 8 27 12 22.5 128.9 990 40 3 Image Chart
2000 8 27 18 22.6 128.9 985 50 4 Image Chart
2000 8 28 00 23.3 127.8 985 50 4 Image Chart
2000 8 28 03 23.3 126.9 985 50 4 Image Chart
2000 8 28 06 22.8 126.2 985 50 4 Image Chart
2000 8 28 09 22.8 126.1 980 55 4 Image Chart
2000 8 28 12 23.0 126.0 980 55 4 Image Chart
2000 8 28 15 23.2 125.8 980 55 4 Image Chart
2000 8 28 18 23.6 125.5 980 55 4 Image Chart
2000 8 28 21 23.7 125.5 975 60 4 Image Chart
2000 8 29 00 23.8 125.4 975 60 4 Image Chart
2000 8 29 03 24.0 125.2 975 60 4 Image Chart
2000 8 29 06 24.3 125.0 975 55 4 Image Chart
2000 8 29 09 24.7 124.7 975 55 4 Image Chart
2000 8 29 12 25.0 124.6 975 55 4 Image Chart
2000 8 29 15 25.5 124.3 975 55 4 Image Chart
2000 8 29 18 25.9 123.9 975 55 4 Image Chart
2000 8 30 00 26.8 123.9 970 60 4 Image Chart
2000 8 30 06 28.7 123.4 970 65 5 Image Chart
2000 8 30 12 29.8 123.2 965 70 5 Image Chart
2000 8 30 18 31.4 123.3 965 70 5 Image Chart
2000 8 31 00 33.3 123.8 965 70 5 Image Chart
2000 8 31 06 35.4 124.1 965 70 5 Image Chart
2000 8 31 12 37.3 125.1 975 60 4 Image Chart
2000 8 31 18 39.2 126.7 980 55 4 Image Chart
2000 9 1 00 41.5 129.2 985 50 4 Image Chart
2000 9 1 06 42.2 131.1 990 45 3 Image Chart
2000 9 1 12 42.2 133.2 990 0 6 Image Chart
2000 9 1 18 42.1 135.0 992 0 6 Image Chart
2000 9 2 00 42.1 137.4 992 0 6 Image Chart
2000 9 2 06 42.1 139.2 990 0 6 Image Chart
2000 9 2 12 41.5 140.2 992 0 6 Image Chart
2000 9 2 18 40.3 141.4 994 0 6 Image Chart
2000 9 3 00 39.6 144.5 996 0 6 Image Chart
2000 9 3 06 39.7 146.8 996 0 6 Image Chart
2000 9 3 12 41.2 149.8 996 0 6 Image Chart
2000 9 3 18 41.9 152.6 996 0 6 Image Chart
2000 9 4 00 42.7 153.7 1000 0 6 Image Chart
2000 9 4 06 42.8 153.9 1000 0 6 Image Chart
Japan Meteorological Agency Best Track Data | Correction Date : 2001-12-21
< Typhoon 200011 2000 Season Typhoon 200013 >

Help